Pacific Princess — ZCDS3 — position and weather

sailwx.info

Track history (hours):
 
Tides and Currents Weather Stations Pressure Air Temp Water Temp Dewpoint Dewpoint Depression Visibility Wind Speed Wind Dir Waves Ship Positions

Pacific Princess (Bermuda)

Last reported at 2019-Sep-21 10:30 UTC. Time now 2019-Sep-21 10:56 UTC.
Position N 54°60' W 001°27'.

Length 180.5 m; beam 25.6 m; draft 6 m.

Type: Passenger vessel. MMSI: 310504000.

Date/timePositionNaut miles runAvg speedWind from/ knotsBaromVisibWave heightAir tempDewpointWater temp
2019-Sep-21 10:30N 54°60' W 001°27'0 0.0
2019-Sep-21 10:00N 54°60' W 001°27'0 0.0
2019-Sep-21 09:30N 54°60' W 001°27'0 0.0
2019-Sep-21 09:00N 54°60' W 001°27'0 0.0
2019-Sep-21 08:27N 54°60' W 001°27'0 0.0
2019-Sep-21 07:54N 54°60' W 001°27'0 0.0
2019-Sep-21 07:24N 54°60' W 001°27'0 0.0
2019-Sep-21 06:54N 54°60' W 001°27'1 1.5
2019-Sep-21 06:30N 54°59' W 001°28'2 3.3
2019-Sep-21 06:00N 55°01' W 001°26'3 6.6
2019-Sep-21 05:30N 55°02' W 001°20'611.7
2019-Sep-21 05:00N 55°03' W 001°10'612.4
2019-Sep-21 04:30N 55°09' W 001°08'714.6
2019-Sep-21 04:00N 55°17' W 001°10'1014.5
2019-Sep-21 03:19N 55°27' W 001°09'1114.0
2019-Sep-21 02:32N 55°38' W 001°11'013.7
2019-Sep-21 02:30N 55°38' W 001°12'713.6
2019-Sep-21 01:58N 55°45' W 001°15'613.4
2019-Sep-21 01:30N 55°50' W 001°22'713.2
2019-Sep-21 01:01N 55°54' W 001°31'713.4
2019-Sep-21 00:30N 55°58' W 001°41'713.7
2019-Sep-21 00:00N 56°01' W 001°52'714.0
2019-Sep-20 23:30N 56°03' W 002°04'2414.5
2019-Sep-20 21:52N 56°07' W 002°46'515.6
2019-Sep-20 21:30N 56°05' W 002°55'714.2
2019-Sep-20 21:00N 56°03' W 003°07'612.9
2019-Sep-20 20:30N 56°01' W 003°18'4 8.9
2019-Sep-20 20:01N 56°01' W 003°26'2 0.1
2019-Sep-20 09:00N 56°00' W 003°24'2 0.7 320 / 11026.0 5.4 13.510.916.0
2019-Sep-20 06:33N 56°01' W 003°26'0 0.3
2019-Sep-20 06:30N 56°01' W 003°26'2 4.4
2019-Sep-20 06:00N 56°00' W 003°22'611.9
2019-Sep-20 05:30N 56°02' W 003°12'714.5
2019-Sep-20 05:00N 56°04' W 002°60'510.3
2019-Sep-20 04:30N 56°06' W 002°51'713.9
2019-Sep-20 04:00N 56°08' W 002°39'815.2
2019-Sep-20 03:30N 56°12' W 002°27'816.4
2019-Sep-20 03:00N 56°18' W 002°19'917.8
2019-Sep-20 02:30N 56°26' W 002°11'918.0
2019-Sep-20 02:00N 56°34' W 002°03'2718.0
2019-Sep-20 00:29N 56°59' W 001°42'817.3
2019-Sep-20 00:00N 57°07' W 001°38'917.5
2019-Sep-19 23:30N 57°16' W 001°36'917.2
2019-Sep-19 23:00N 57°24' W 001°35'816.7
2019-Sep-19 22:30N 57°32' W 001°33'816.2
2019-Sep-19 22:00N 57°40' W 001°40'1016.1
2019-Sep-19 21:25N 57°49' W 001°46'5014.7
2019-Sep-19 18:00N 58°36' W 002°18'2128.4 280 / 111027.8 5.4 13.510.916.0
2019-Sep-19 17:15N 58°55' W 002°35'417.1
2019-Sep-19 17:00N 58°59' W 002°39'815.7
2019-Sep-19 16:30N 59°01' W 002°54'3 4.9
2019-Sep-19 15:58N 59°00' W 002°59'0 0.0
2019-Sep-19 15:28N 59°00' W 002°59'0 0.0
2019-Sep-19 14:55N 59°00' W 002°59'0 0.0
2019-Sep-19 14:28N 59°00' W 002°59'0 0.0
2019-Sep-19 13:58N 59°00' W 002°59'0 0.0
2019-Sep-19 13:22N 59°00' W 002°59'0 0.0
2019-Sep-19 12:58N 59°00' W 002°59'0 0.0
2019-Sep-19 12:28N 59°00' W 002°59'0 0.0
2019-Sep-19 11:58N 59°00' W 002°59'0 0.0
2019-Sep-19 11:28N 59°00' W 002°59'0 0.0
2019-Sep-19 10:58N 59°00' W 002°59'0 0.0
2019-Sep-19 10:28N 59°00' W 002°59'0 0.0
2019-Sep-19 09:58N 59°00' W 002°59'0 0.0
2019-Sep-19 09:28N 59°00' W 002°59'0 0.0
2019-Sep-19 08:58N 59°00' W 002°59'0 0.0
2019-Sep-19 08:28N 59°00' W 002°59'0 0.0
2019-Sep-19 07:58N 59°00' W 002°59'0 0.0
2019-Sep-19 07:28N 59°00' W 002°59'0 0.0
2019-Sep-19 06:58N 59°00' W 002°59'0 0.0
2019-Sep-19 06:28N 59°00' W 002°59'0 0.0
2019-Sep-19 05:58N 59°00' W 002°59'0 0.1
2019-Sep-19 05:30N 59°00' W 002°58'1 2.6
2019-Sep-19 05:00N 59°01' W 002°57'4 8.5
2019-Sep-19 04:30N 59°00' W 002°49'510.1
2019-Sep-19 04:00N 58°60' W 002°39'612.8
2019-Sep-19 03:30N 58°59' W 002°27'1512.5
2019-Sep-19 02:16N 58°51' W 002°01'2313.1
2019-Sep-19 00:30N 58°40' W 002°40'917.8
2019-Sep-19 00:01N 58°43' W 002°56'1019.8
2019-Sep-18 23:30N 58°43' W 003°15'1121.5
2019-Sep-18 23:00N 58°42' W 003°36'1020.4
2019-Sep-18 22:30N 58°42' W 003°55'1020.4
2019-Sep-18 22:00N 58°41' W 004°15'2719.7
2019-Sep-18 20:38N 58°36' W 005°06'620.4
2019-Sep-18 20:21N 58°31' W 005°12'720.0
2019-Sep-18 20:00N 58°25' W 005°18'1019.5
2019-Sep-18 19:30N 58°17' W 005°27'1319.5
2019-Sep-18 18:50N 58°05' W 005°39'3418.8
2019-Sep-18 17:00N 57°33' W 006°03'911.9
2019-Sep-18 16:16N 57°25' W 006°08'0 0.0
2019-Sep-18 05:37N 57°25' W 006°09'1 6.5
2019-Sep-18 05:29N 57°26' W 006°08'510.3
2019-Sep-18 04:59N 57°31' W 006°05'4 8.9
2019-Sep-18 04:30N 57°35' W 006°03'14 8.0
2019-Sep-18 02:44N 57°49' W 005°60'12 8.6
2019-Sep-18 01:20N 57°49' W 006°22'129 7.2
2019-Sep-17 07:23N 55°42' W 007°02'5 8.0
2019-Sep-17 06:48N 55°39' W 006°57'2 7.9
2019-Sep-17 06:30N 55°37' W 006°53'4 7.5
2019-Sep-17 06:00N 55°36' W 006°48'3210.7
2019-Sep-17 06:00N 55°36' W 006°42'2 4.2 340 / 141026.310.8 13.5 7.916.0
2019-Sep-17 05:30N 55°34' W 006°41'4 8.4
2019-Sep-17 05:00N 55°33' W 006°34'5 9.2
2019-Sep-17 04:30N 55°31' W 006°27'5 9.3
2019-Sep-17 04:00N 55°28' W 006°21'5 9.5
2019-Sep-17 03:30N 55°26' W 006°13'5 9.5
2019-Sep-17 03:00N 55°25' W 006°05'5 9.0
2019-Sep-17 02:30N 55°22' W 005°59'5 9.4
2019-Sep-17 02:00N 55°18' W 005°55'29 7.7
2019-Sep-16 22:11N 54°51' W 005°34'1 7.4
2019-Sep-16 22:00N 54°50' W 005°34'4 7.7
2019-Sep-16 21:30N 54°46' W 005°37'4 8.1
2019-Sep-16 21:00N 54°43' W 005°40'4 8.9
2019-Sep-16 20:30N 54°41' W 005°48'510.5
2019-Sep-16 20:00N 54°37' W 005°54'0 0.6
2019-Sep-16 19:28N 54°37' W 005°54'0 0.0
2019-Sep-16 18:58N 54°37' W 005°54'0 0.0
2019-Sep-16 18:28N 54°37' W 005°54'0 0.0
2019-Sep-16 17:52N 54°37' W 005°54'0 0.0
2019-Sep-16 17:28N 54°37' W 005°54'0 0.0
2019-Sep-16 16:58N 54°37' W 005°54'0 0.0
2019-Sep-16 16:28N 54°37' W 005°54'0 0.0
2019-Sep-16 15:58N 54°37' W 005°54'0 0.0
2019-Sep-16 15:28N 54°37' W 005°54'0 0.0
2019-Sep-16 14:58N 54°37' W 005°54'0 0.0
2019-Sep-16 14:28N 54°37' W 005°54'0 0.0
2019-Sep-16 13:58N 54°37' W 005°54'0 0.0
2019-Sep-16 13:28N 54°37' W 005°54'0 0.0
2019-Sep-16 12:58N 54°37' W 005°54'0 0.0
2019-Sep-16 12:28N 54°37' W 005°54'0 0.0
2019-Sep-16 11:58N 54°37' W 005°54'0 0.0
2019-Sep-16 11:28N 54°37' W 005°54'0 0.0
2019-Sep-16 10:58N 54°37' W 005°54'0 0.0
2019-Sep-16 10:28N 54°37' W 005°54'1 2.2
2019-Sep-16 10:00N 54°36' W 005°54'157.0 330 / 31024.210.8 13.2 8.814.0
2019-Sep-16 09:58N 54°37' W 005°54'0 0.0
2019-Sep-16 09:28N 54°37' W 005°54'0 0.0
2019-Sep-16 08:58N 54°37' W 005°54'0 0.0
2019-Sep-16 08:28N 54°37' W 005°54'0 0.0
2019-Sep-16 07:58N 54°37' W 005°54'0 0.0
2019-Sep-16 07:28N 54°37' W 005°54'0 0.3
2019-Sep-16 06:58N 54°37' W 005°54'1 2.0
2019-Sep-16 06:30N 54°38' W 005°53'4 8.4
2019-Sep-16 06:01N 54°41' W 005°48'510.1
2019-Sep-16 05:31N 54°42' W 005°40'612.2
2019-Sep-16 05:01N 54°43' W 005°29'611.5
2019-Sep-16 04:30N 54°41' W 005°20'612.6
2019-Sep-16 04:00N 54°35' W 005°17'612.7
2019-Sep-16 03:31N 54°29' W 005°14'612.3
2019-Sep-16 03:00N 54°23' W 005°12'612.5
2019-Sep-16 02:31N 54°17' W 005°14'712.7
2019-Sep-16 02:00N 54°10' W 005°16'612.6
2019-Sep-16 01:30N 54°05' W 005°20'4012.6
2019-Sep-15 22:18N 53°28' W 005°50'413.0
2019-Sep-15 22:00N 53°25' W 005°53'612.9
2019-Sep-15 21:30N 53°21' W 006°01'5 9.8
2019-Sep-15 21:00N 53°21' W 006°10'2 3.7
2019-Sep-15 20:30N 53°21' W 006°13'0 0.0
2019-Sep-15 19:08N 53°21' W 006°13'0 0.0
2019-Sep-15 18:38N 53°21' W 006°13'0 0.0
2019-Sep-15 18:08N 53°21' W 006°13'0 0.0
2019-Sep-15 17:56N 53°21' W 006°13'0 0.0
2019-Sep-15 17:26N 53°21' W 006°13'0 0.0
2019-Sep-15 16:56N 53°21' W 006°13'0 0.0
2019-Sep-15 16:26N 53°21' W 006°13'0 0.0
2019-Sep-15 14:38N 53°21' W 006°13'0 0.0
2019-Sep-15 14:14N 53°21' W 006°13'0 0.0
2019-Sep-15 13:44N 53°21' W 006°13'0 0.0
2019-Sep-15 13:08N 53°21' W 006°13'0 0.0
2019-Sep-15 12:38N 53°21' W 006°13'0 0.0
2019-Sep-15 12:08N 53°21' W 006°13'0 0.0
2019-Sep-15 10:44N 53°21' W 006°13'3 1.6
2019-Sep-15 09:00N 53°18' W 006°12'3 2.2 350 / 61024.110.8 16.514.117.0
2019-Sep-15 07:44N 53°21' W 006°13'0 0.0
2019-Sep-15 06:50N 53°21' W 006°13'0 0.0
2019-Sep-15 06:05N 53°21' W 006°13'0 0.0
2019-Sep-15 05:53N 53°21' W 006°13'0 0.1
2019-Sep-15 05:22N 53°21' W 006°13'1 2.4
2019-Sep-15 05:00N 53°21' W 006°11'5 9.0
2019-Sep-15 04:30N 53°20' W 006°04'56 7.9
2019-Sep-14 21:23N 53°46' W 004°39'5 8.8
2019-Sep-14 20:51N 53°41' W 004°39'410.7
2019-Sep-14 20:30N 53°39' W 004°44'510.8
2019-Sep-14 20:00N 53°37' W 004°52'510.6
2019-Sep-14 19:30N 53°34' W 004°60'1711.4
2019-Sep-14 18:00N 53°18' W 004°48'7 6.3 180 / 271026.310.8 16.514.117.0
2019-Sep-14 16:54N 53°20' W 004°37'0 0.4
2019-Sep-14 16:08N 53°20' W 004°37'103 5.4
2019-Sep-13 21:00N 52°00' W 006°24'25 1.9 070 / 81036.710.8 14.010.517.0
2019-Sep-13 08:00N 52°12' W 007°00'60 8.1 350 / 21036.710.8 14.0 5.217.0
2019-Sep-13 00:31N 51°16' W 006°24'018.3
2019-Sep-13 00:30N 51°16' W 006°24'1318.3
2019-Sep-12 23:49N 51°04' W 006°17'618.7
2019-Sep-12 23:28N 50°58' W 006°13'1018.5
2019-Sep-12 22:55N 50°48' W 006°08'818.3
2019-Sep-12 22:29N 50°41' W 006°04'3020.4
2019-Sep-12 21:00N 50°12' W 005°48'2810.9 300 / 231031.1 2.2 17.015.419.0
2019-Sep-12 18:24N 49°54' W 005°14'15 1.4
2019-Sep-12 08:00N 50°06' W 005°00'2 0.6 280 / 61027.8 5.4 17.015.419.0
2019-Sep-12 04:30N 50°04' W 004°59'611.6
2019-Sep-12 04:00N 50°03' W 004°50'1411.6
2019-Sep-12 02:48N 49°59' W 004°29'2412.8
2019-Sep-12 00:58N 49°58' W 003°53'714.9
2019-Sep-12 00:30N 49°59' W 003°42'815.1
2019-Sep-11 23:59N 50°00' W 003°30'715.5
2019-Sep-11 23:30N 50°04' W 003°20'815.2
2019-Sep-11 23:00N 50°08' W 003°10'714.8
2019-Sep-11 22:30N 50°13' W 003°01'714.3
2019-Sep-11 22:00N 50°17' W 002°53'713.8
2019-Sep-11 21:30N 50°21' W 002°43'713.2
2019-Sep-11 21:00N 50°23' W 002°34'712.2
2019-Sep-11 20:24N 50°26' W 002°23'511.5
2019-Sep-11 20:00N 50°30' W 002°19'6 9.0
2019-Sep-11 19:17N 50°35' W 002°25'  
Track history (hours):
 
Tides and Currents Weather Stations Pressure Air Temp Water Temp Dewpoint Dewpoint Depression Visibility Wind Speed Wind Dir Waves Ship Positions

Pacific Princess (Bermuda)

Last reported at 2019-Sep-21 10:30 UTC. Time now 2019-Sep-21 10:56 UTC.
Position N 54°60' W 001°27'.

Length 180.5 m; beam 25.6 m; draft 6 m.

Type: Passenger vessel. MMSI: 310504000.

Date/timePositionNaut miles runAvg speedWind from/ knotsBaromVisibWave heightAir tempDewpointWater temp
2019-Sep-21 10:30N 54°60' W 001°27'0 0.0
2019-Sep-21 10:00N 54°60' W 001°27'0 0.0
2019-Sep-21 09:30N 54°60' W 001°27'0 0.0
2019-Sep-21 09:00N 54°60' W 001°27'0 0.0
2019-Sep-21 08:27N 54°60' W 001°27'0 0.0
2019-Sep-21 07:54N 54°60' W 001°27'0 0.0
2019-Sep-21 07:24N 54°60' W 001°27'0 0.0
2019-Sep-21 06:54N 54°60' W 001°27'1 1.5
2019-Sep-21 06:30N 54°59' W 001°28'2 3.3
2019-Sep-21 06:00N 55°01' W 001°26'3 6.6
2019-Sep-21 05:30N 55°02' W 001°20'611.7
2019-Sep-21 05:00N 55°03' W 001°10'612.4
2019-Sep-21 04:30N 55°09' W 001°08'714.6
2019-Sep-21 04:00N 55°17' W 001°10'1014.5
2019-Sep-21 03:19N 55°27' W 001°09'1114.0
2019-Sep-21 02:32N 55°38' W 001°11'013.7
2019-Sep-21 02:30N 55°38' W 001°12'713.6
2019-Sep-21 01:58N 55°45' W 001°15'613.4
2019-Sep-21 01:30N 55°50' W 001°22'713.2
2019-Sep-21 01:01N 55°54' W 001°31'713.4
2019-Sep-21 00:30N 55°58' W 001°41'713.7
2019-Sep-21 00:00N 56°01' W 001°52'714.0
2019-Sep-20 23:30N 56°03' W 002°04'2414.5
2019-Sep-20 21:52N 56°07' W 002°46'515.6
2019-Sep-20 21:30N 56°05' W 002°55'714.2
2019-Sep-20 21:00N 56°03' W 003°07'612.9
2019-Sep-20 20:30N 56°01' W 003°18'4 8.9
2019-Sep-20 20:01N 56°01' W 003°26'2 0.1
2019-Sep-20 09:00N 56°00' W 003°24'2 0.7 320 / 11026.0 5.4 13.510.916.0
2019-Sep-20 06:33N 56°01' W 003°26'0 0.3
2019-Sep-20 06:30N 56°01' W 003°26'2 4.4
2019-Sep-20 06:00N 56°00' W 003°22'611.9
2019-Sep-20 05:30N 56°02' W 003°12'714.5
2019-Sep-20 05:00N 56°04' W 002°60'510.3
2019-Sep-20 04:30N 56°06' W 002°51'713.9
2019-Sep-20 04:00N 56°08' W 002°39'815.2
2019-Sep-20 03:30N 56°12' W 002°27'816.4
2019-Sep-20 03:00N 56°18' W 002°19'917.8
2019-Sep-20 02:30N 56°26' W 002°11'918.0
2019-Sep-20 02:00N 56°34' W 002°03'2718.0
2019-Sep-20 00:29N 56°59' W 001°42'817.3
2019-Sep-20 00:00N 57°07' W 001°38'917.5
2019-Sep-19 23:30N 57°16' W 001°36'917.2
2019-Sep-19 23:00N 57°24' W 001°35'816.7
2019-Sep-19 22:30N 57°32' W 001°33'816.2
2019-Sep-19 22:00N 57°40' W 001°40'1016.1
2019-Sep-19 21:25N 57°49' W 001°46'5014.7
2019-Sep-19 18:00N 58°36' W 002°18'2128.4 280 / 111027.8 5.4 13.510.916.0
2019-Sep-19 17:15N 58°55' W 002°35'417.1
2019-Sep-19 17:00N 58°59' W 002°39'815.7
2019-Sep-19 16:30N 59°01' W 002°54'3 4.9
2019-Sep-19 15:58N 59°00' W 002°59'0 0.0
2019-Sep-19 15:28N 59°00' W 002°59'0 0.0
2019-Sep-19 14:55N 59°00' W 002°59'0 0.0
2019-Sep-19 14:28N 59°00' W 002°59'0 0.0
2019-Sep-19 13:58N 59°00' W 002°59'0 0.0
2019-Sep-19 13:22N 59°00' W 002°59'0 0.0
2019-Sep-19 12:58N 59°00' W 002°59'0 0.0
2019-Sep-19 12:28N 59°00' W 002°59'0 0.0
2019-Sep-19 11:58N 59°00' W 002°59'0 0.0
2019-Sep-19 11:28N 59°00' W 002°59'0 0.0
2019-Sep-19 10:58N 59°00' W 002°59'0 0.0
2019-Sep-19 10:28N 59°00' W 002°59'0 0.0
2019-Sep-19 09:58N 59°00' W 002°59'0 0.0
2019-Sep-19 09:28N 59°00' W 002°59'0 0.0
2019-Sep-19 08:58N 59°00' W 002°59'0 0.0
2019-Sep-19 08:28N 59°00' W 002°59'0 0.0
2019-Sep-19 07:58N 59°00' W 002°59'0 0.0
2019-Sep-19 07:28N 59°00' W 002°59'0 0.0
2019-Sep-19 06:58N 59°00' W 002°59'0 0.0
2019-Sep-19 06:28N 59°00' W 002°59'0 0.0
2019-Sep-19 05:58N 59°00' W 002°59'0 0.1
2019-Sep-19 05:30N 59°00' W 002°58'1 2.6
2019-Sep-19 05:00N 59°01' W 002°57'4 8.5
2019-Sep-19 04:30N 59°00' W 002°49'510.1
2019-Sep-19 04:00N 58°60' W 002°39'612.8
2019-Sep-19 03:30N 58°59' W 002°27'1512.5
2019-Sep-19 02:16N 58°51' W 002°01'2313.1
2019-Sep-19 00:30N 58°40' W 002°40'917.8
2019-Sep-19 00:01N 58°43' W 002°56'1019.8
2019-Sep-18 23:30N 58°43' W 003°15'1121.5
2019-Sep-18 23:00N 58°42' W 003°36'1020.4
2019-Sep-18 22:30N 58°42' W 003°55'1020.4
2019-Sep-18 22:00N 58°41' W 004°15'2719.7
2019-Sep-18 20:38N 58°36' W 005°06'620.4
2019-Sep-18 20:21N 58°31' W 005°12'720.0
2019-Sep-18 20:00N 58°25' W 005°18'1019.5
2019-Sep-18 19:30N 58°17' W 005°27'1319.5
2019-Sep-18 18:50N 58°05' W 005°39'3418.8
2019-Sep-18 17:00N 57°33' W 006°03'911.9
2019-Sep-18 16:16N 57°25' W 006°08'0 0.0
2019-Sep-18 05:37N 57°25' W 006°09'1 6.5
2019-Sep-18 05:29N 57°26' W 006°08'510.3
2019-Sep-18 04:59N 57°31' W 006°05'4 8.9
2019-Sep-18 04:30N 57°35' W 006°03'14 8.0
2019-Sep-18 02:44N 57°49' W 005°60'12 8.6
2019-Sep-18 01:20N 57°49' W 006°22'129 7.2
2019-Sep-17 07:23N 55°42' W 007°02'5 8.0
2019-Sep-17 06:48N 55°39' W 006°57'2 7.9
2019-Sep-17 06:30N 55°37' W 006°53'4 7.5
2019-Sep-17 06:00N 55°36' W 006°48'3210.7
2019-Sep-17 06:00N 55°36' W 006°42'2 4.2 340 / 141026.310.8 13.5 7.916.0
2019-Sep-17 05:30N 55°34' W 006°41'4 8.4
2019-Sep-17 05:00N 55°33' W 006°34'5 9.2
2019-Sep-17 04:30N 55°31' W 006°27'5 9.3
2019-Sep-17 04:00N 55°28' W 006°21'5 9.5
2019-Sep-17 03:30N 55°26' W 006°13'5 9.5
2019-Sep-17 03:00N 55°25' W 006°05'5 9.0
2019-Sep-17 02:30N 55°22' W 005°59'5 9.4
2019-Sep-17 02:00N 55°18' W 005°55'29 7.7
2019-Sep-16 22:11N 54°51' W 005°34'1 7.4
2019-Sep-16 22:00N 54°50' W 005°34'4 7.7
2019-Sep-16 21:30N 54°46' W 005°37'4 8.1
2019-Sep-16 21:00N 54°43' W 005°40'4 8.9
2019-Sep-16 20:30N 54°41' W 005°48'510.5
2019-Sep-16 20:00N 54°37' W 005°54'0 0.6
2019-Sep-16 19:28N 54°37' W 005°54'0 0.0
2019-Sep-16 18:58N 54°37' W 005°54'0 0.0
2019-Sep-16 18:28N 54°37' W 005°54'0 0.0
2019-Sep-16 17:52N 54°37' W 005°54'0 0.0
2019-Sep-16 17:28N 54°37' W 005°54'0 0.0
2019-Sep-16 16:58N 54°37' W 005°54'0 0.0
2019-Sep-16 16:28N 54°37' W 005°54'0 0.0
2019-Sep-16 15:58N 54°37' W 005°54'0 0.0
2019-Sep-16 15:28N 54°37' W 005°54'0 0.0
2019-Sep-16 14:58N 54°37' W 005°54'0 0.0
2019-Sep-16 14:28N 54°37' W 005°54'0 0.0
2019-Sep-16 13:58N 54°37' W 005°54'0 0.0
2019-Sep-16 13:28N 54°37' W 005°54'0 0.0
2019-Sep-16 12:58N 54°37' W 005°54'0 0.0
2019-Sep-16 12:28N 54°37' W 005°54'0 0.0
2019-Sep-16 11:58N 54°37' W 005°54'0 0.0
2019-Sep-16 11:28N 54°37' W 005°54'0 0.0
2019-Sep-16 10:58N 54°37' W 005°54'0 0.0
2019-Sep-16 10:28N 54°37' W 005°54'1 2.2
2019-Sep-16 10:00N 54°36' W 005°54'157.0 330 / 31024.210.8 13.2 8.814.0
2019-Sep-16 09:58N 54°37' W 005°54'0 0.0
2019-Sep-16 09:28N 54°37' W 005°54'0 0.0
2019-Sep-16 08:58N 54°37' W 005°54'0 0.0
2019-Sep-16 08:28N 54°37' W 005°54'0 0.0
2019-Sep-16 07:58N 54°37' W 005°54'0 0.0
2019-Sep-16 07:28N 54°37' W 005°54'0 0.3
2019-Sep-16 06:58N 54°37' W 005°54'1 2.0
2019-Sep-16 06:30N 54°38' W 005°53'4 8.4
2019-Sep-16 06:01N 54°41' W 005°48'510.1
2019-Sep-16 05:31N 54°42' W 005°40'612.2
2019-Sep-16 05:01N 54°43' W 005°29'611.5
2019-Sep-16 04:30N 54°41' W 005°20'612.6
2019-Sep-16 04:00N 54°35' W 005°17'612.7
2019-Sep-16 03:31N 54°29' W 005°14'612.3
2019-Sep-16 03:00N 54°23' W 005°12'612.5
2019-Sep-16 02:31N 54°17' W 005°14'712.7
2019-Sep-16 02:00N 54°10' W 005°16'612.6
2019-Sep-16 01:30N 54°05' W 005°20'4012.6
2019-Sep-15 22:18N 53°28' W 005°50'413.0
2019-Sep-15 22:00N 53°25' W 005°53'612.9
2019-Sep-15 21:30N 53°21' W 006°01'5 9.8
2019-Sep-15 21:00N 53°21' W 006°10'2 3.7
2019-Sep-15 20:30N 53°21' W 006°13'0 0.0
2019-Sep-15 19:08N 53°21' W 006°13'0 0.0
2019-Sep-15 18:38N 53°21' W 006°13'0 0.0
2019-Sep-15 18:08N 53°21' W 006°13'0 0.0
2019-Sep-15 17:56N 53°21' W 006°13'0 0.0
2019-Sep-15 17:26N 53°21' W 006°13'0 0.0
2019-Sep-15 16:56N 53°21' W 006°13'0 0.0
2019-Sep-15 16:26N 53°21' W 006°13'0 0.0
2019-Sep-15 14:38N 53°21' W 006°13'0 0.0
2019-Sep-15 14:14N 53°21' W 006°13'0 0.0
2019-Sep-15 13:44N 53°21' W 006°13'0 0.0
2019-Sep-15 13:08N 53°21' W 006°13'0 0.0
2019-Sep-15 12:38N 53°21' W 006°13'0 0.0
2019-Sep-15 12:08N 53°21' W 006°13'0 0.0
2019-Sep-15 10:44N 53°21' W 006°13'3 1.6
2019-Sep-15 09:00N 53°18' W 006°12'3 2.2 350 / 61024.110.8 16.514.117.0
2019-Sep-15 07:44N 53°21' W 006°13'0 0.0
2019-Sep-15 06:50N 53°21' W 006°13'0 0.0
2019-Sep-15 06:05N 53°21' W 006°13'0 0.0
2019-Sep-15 05:53N 53°21' W 006°13'0 0.1
2019-Sep-15 05:22N 53°21' W 006°13'1 2.4
2019-Sep-15 05:00N 53°21' W 006°11'5 9.0
2019-Sep-15 04:30N 53°20' W 006°04'56 7.9
2019-Sep-14 21:23N 53°46' W 004°39'5 8.8
2019-Sep-14 20:51N 53°41' W 004°39'410.7
2019-Sep-14 20:30N 53°39' W 004°44'510.8
2019-Sep-14 20:00N 53°37' W 004°52'510.6
2019-Sep-14 19:30N 53°34' W 004°60'1711.4
2019-Sep-14 18:00N 53°18' W 004°48'7 6.3 180 / 271026.310.8 16.514.117.0
2019-Sep-14 16:54N 53°20' W 004°37'0 0.4
2019-Sep-14 16:08N 53°20' W 004°37'103 5.4
2019-Sep-13 21:00N 52°00' W 006°24'25 1.9 070 / 81036.710.8 14.010.517.0
2019-Sep-13 08:00N 52°12' W 007°00'60 8.1 350 / 21036.710.8 14.0 5.217.0
2019-Sep-13 00:31N 51°16' W 006°24'018.3
2019-Sep-13 00:30N 51°16' W 006°24'1318.3
2019-Sep-12 23:49N 51°04' W 006°17'618.7
2019-Sep-12 23:28N 50°58' W 006°13'1018.5
2019-Sep-12 22:55N 50°48' W 006°08'818.3
2019-Sep-12 22:29N 50°41' W 006°04'3020.4
2019-Sep-12 21:00N 50°12' W 005°48'2810.9 300 / 231031.1 2.2 17.015.419.0
2019-Sep-12 18:24N 49°54' W 005°14'15 1.4
2019-Sep-12 08:00N 50°06' W 005°00'2 0.6 280 / 61027.8 5.4 17.015.419.0
2019-Sep-12 04:30N 50°04' W 004°59'611.6
2019-Sep-12 04:00N 50°03' W 004°50'1411.6
2019-Sep-12 02:48N 49°59' W 004°29'2412.8
2019-Sep-12 00:58N 49°58' W 003°53'714.9
2019-Sep-12 00:30N 49°59' W 003°42'815.1
2019-Sep-11 23:59N 50°00' W 003°30'715.5
2019-Sep-11 23:30N 50°04' W 003°20'815.2
2019-Sep-11 23:00N 50°08' W 003°10'714.8
2019-Sep-11 22:30N 50°13' W 003°01'714.3
2019-Sep-11 22:00N 50°17' W 002°53'713.8
2019-Sep-11 21:30N 50°21' W 002°43'713.2
2019-Sep-11 21:00N 50°23' W 002°34'712.2
2019-Sep-11 20:24N 50°26' W 002°23'511.5
2019-Sep-11 20:00N 50°30' W 002°19'6 9.0
2019-Sep-11 19:17N 50°35' W 002°25'  

Dump ship's entire track history